Archival Weather

NSFA McMurdo Sound

NSFA McMurdo Sound, Antarctica (NZCM)

Report from: Friday, September 23, 2022 12:00 PM UTC
Current time: Sunday, December 4, 2022 12:31 PM UTC

Current weather
Weather history
Weather forecast

Present weatherLight snow, mist
Temperature-20.0°C (-4.0°F)
Wind chill-33.1°C (-27.6°F)
Dew point-24.6°C (-12.3°F)
Winds 18 kts (9.3 m/s, 20.7 mph) East-Northeast (60°)
Wind gusts 25 kts (12.9 m/s, 28.8 mph)
Visibility2.2 mi. (3.6 km)
Clouds Ceiling: Overcast 1,600 ft. (488 m)
Altimeter28.62 in.Hg (969 mB)
Precip. events Snow ended 11:56 AM
Snow began 11:59 AM
Relative humidity67 %
Density altitude-2,905 ft. (-886 m)
Sea-level pressure107.0 kPa (1070 mB, 31.59 in.Hg)
Remarks Fully automated report
System requires maintenance
Special weather observation
Automated weather observing station with precipitation discriminator
Flight conditions Instrument Meteorological Conditions
Raw dataSPECI NZCM 231200Z AUTO 06018G25KT 3600 -SN BR OVC016 M20/M25 A2862 RMK AO2 WSHFT 1156 SNE1156B1159 SLP698 T12001246 $
An error has occurred. This application may no longer respond until reloaded. Reload 🗙